Time;durP1;ratioP1;P1;durP2;ratioP2;P2;SDS_P1;SDS_P2;PMS_P1;PMS_P2;Temp;Humidity;BMP_temperature;BMP_pressure;BME280_temperature;BME280_humidity;BME280_pressure;Samples;Min_cycle;Max_cycle;Signal;HPM_P1;HPM_P2
2022/08/31 00:05:39;;;;;;;5.82;1.67;;;20.60;99.90;;;;;;5044800;28;20119;-69
2022/08/31 00:08:05;;;;;;;1.70;1.50;;;20.60;99.90;;;;;;5040578;28;20076;-70
2022/08/31 00:10:31;;;;;;;4.60;2.28;;;20.70;99.90;;;;;;5045730;28;20111;-71
2022/08/31 00:12:58;;;;;;;3.22;1.65;;;20.70;99.90;;;;;;5050744;28;20036;-70
2022/08/31 00:15:24;;;;;;;4.53;1.50;;;20.70;99.90;;;;;;5057265;28;20029;-70
2022/08/31 00:17:51;;;;;;;1.92;1.73;;;20.60;99.90;;;;;;5053360;28;20025;-70
2022/08/31 00:20:19;;;;;;;3.78;1.58;;;20.60;99.90;;;;;;5035308;28;20024;-70
2022/08/31 00:22:45;;;;;;;4.07;1.80;;;20.60;99.90;;;;;;5038049;28;20221;-70
2022/08/31 00:25:11;;;;;;;5.65;2.45;;;20.60;99.90;;;;;;5044767;28;20029;-70
2022/08/31 00:27:37;;;;;;;4.57;2.30;;;20.50;99.90;;;;;;5046643;28;20017;-70
2022/08/31 00:30:06;;;;;;;4.82;2.15;;;20.50;99.90;;;;;;5045208;28;20111;-72
2022/08/31 00:32:32;;;;;;;2.80;2.33;;;20.50;99.90;;;;;;5037362;28;20071;-70
2022/08/31 00:34:58;;;;;;;3.83;2.10;;;20.60;99.90;;;;;;5048246;28;20497;-70
2022/08/31 00:37:24;;;;;;;3.10;2.25;;;20.60;99.90;;;;;;5048307;28;20061;-70
2022/08/31 00:39:51;;;;;;;3.38;2.20;;;20.50;99.90;;;;;;5039462;28;20504;-70
2022/08/31 00:42:18;;;;;;;3.78;2.63;;;20.50;99.90;;;;;;5044343;28;20018;-72
2022/08/31 00:44:43;;;;;;;5.15;2.30;;;20.50;99.90;;;;;;5030412;28;20034;-71
2022/08/31 00:47:09;;;;;;;4.00;2.30;;;20.50;99.90;;;;;;5044730;28;20028;-71
2022/08/31 00:49:38;;;;;;;3.47;2.20;;;20.50;99.90;;;;;;5045662;28;20106;-69
2022/08/31 00:52:18;;;;;;;3.80;2.30;;;20.50;99.90;;;;;;5041627;28;20533;-69
2022/08/31 00:54:52;;;;;;;3.90;2.28;;;20.40;99.90;;;;;;5036224;28;20052;-69
2022/08/31 00:57:19;;;;;;;5.07;2.60;;;20.40;99.90;;;;;;5047552;28;20021;-70
2022/08/31 00:59:47;;;;;;;4.57;2.25;;;20.30;99.90;;;;;;5049757;28;20516;-70
2022/08/31 01:02:13;;;;;;;2.88;2.17;;;20.30;99.90;;;;;;5042954;28;20037;-69
2022/08/31 01:04:39;;;;;;;4.78;2.42;;;20.30;99.90;;;;;;5048332;28;20024;-69
2022/08/31 01:07:07;;;;;;;3.38;2.30;;;20.20;99.90;;;;;;5049623;28;20033;-70
2022/08/31 01:09:37;;;;;;;2.63;2.15;;;20.20;99.90;;;;;;5053406;28;20104;-69
2022/08/31 01:12:05;;;;;;;5.35;2.13;;;20.20;99.90;;;;;;5050078;28;20030;-69
2022/08/31 01:14:31;;;;;;;4.82;2.30;;;20.30;99.90;;;;;;5044238;28;20068;-70
2022/08/31 01:16:56;;;;;;;4.72;2.30;;;20.30;99.90;;;;;;5053101;28;20025;-70
2022/08/31 01:19:40;;;;;;;3.00;2.03;;;20.20;99.90;;;;;;5043421;28;20500;-69
2022/08/31 01:22:18;;;;;;;4.07;2.05;;;20.20;99.90;;;;;;5050086;28;20037;-70
2022/08/31 01:24:46;;;;;;;3.20;2.13;;;20.20;99.90;;;;;;5029386;28;20075;-69
2022/08/31 01:27:14;;;;;;;2.38;2.17;;;20.20;99.90;;;;;;5048794;28;20033;-69
2022/08/31 01:29:41;;;;;;;4.38;2.08;;;20.20;99.90;;;;;;5039559;28;20136;-69
2022/08/31 01:32:07;;;;;;;3.92;1.88;;;20.20;99.90;;;;;;5048850;28;20036;-69
2022/08/31 01:34:33;;;;;;;5.18;2.25;;;20.30;99.90;;;;;;5050909;28;20478;-69
2022/08/31 01:37:00;;;;;;;3.10;2.05;;;20.30;99.90;;;;;;5052315;28;20047;-70
2022/08/31 01:39:26;;;;;;;3.15;1.98;;;20.30;99.90;;;;;;5052340;28;20115;-70
2022/08/31 01:41:52;;;;;;;2.50;1.92;;;20.40;99.90;;;;;;5047898;28;20105;-69
2022/08/31 01:44:21;;;;;;;3.33;2.08;;;20.30;99.90;;;;;;5047704;28;20070;-69
2022/08/31 01:46:47;;;;;;;3.85;2.60;;;20.20;99.90;;;;;;5049110;28;20381;-69
2022/08/31 01:49:15;;;;;;;3.92;2.08;;;20.20;99.90;;;;;;5051373;28;20028;-69
2022/08/31 01:51:41;;;;;;;2.58;2.28;;;20.30;99.90;;;;;;5041604;28;20064;-69
2022/08/31 01:54:07;;;;;;;6.13;2.13;;;20.30;99.90;;;;;;5045233;28;20037;-69
2022/08/31 01:56:37;;;;;;;3.78;2.30;;;20.20;99.90;;;;;;5049429;28;20131;-69
2022/08/31 01:59:03;;;;;;;2.83;2.13;;;20.20;99.90;;;;;;5027972;28;20117;-70
2022/08/31 02:01:32;;;;;;;4.20;2.20;;;20.20;99.90;;;;;;5033717;28;20382;-69
2022/08/31 02:03:58;;;;;;;2.58;1.90;;;20.20;99.90;;;;;;5023126;28;20025;-69
2022/08/31 02:06:24;;;;;;;3.38;2.17;;;20.10;99.90;;;;;;5051543;28;20389;-69
2022/08/31 02:08:50;;;;;;;5.07;2.03;;;20.10;99.90;;;;;;5033528;28;21031;-69
2022/08/31 02:11:16;;;;;;;2.90;1.90;;;20.20;99.90;;;;;;5046680;28;20076;-69
2022/08/31 02:13:42;;;;;;;1.95;1.80;;;20.30;99.90;;;;;;5051618;28;20037;-70
2022/08/31 02:16:08;;;;;;;5.28;1.65;;;20.30;99.90;;;;;;5048744;28;20056;-69
2022/08/31 02:18:35;;;;;;;4.40;2.38;;;20.20;99.90;;;;;;5049701;28;20064;-69
2022/08/31 02:21:02;;;;;;;5.13;1.98;;;20.30;99.90;;;;;;5052962;28;20045;-69
2022/08/31 02:23:28;;;;;;;5.07;2.20;;;20.20;99.90;;;;;;5050210;28;20025;-70
2022/08/31 02:25:54;;;;;;;2.47;1.92;;;20.10;99.90;;;;;;5045675;28;20036;-72
2022/08/31 02:28:21;;;;;;;3.05;2.00;;;20.20;99.90;;;;;;5043264;28;20030;-72
2022/08/31 02:30:47;;;;;;;2.95;2.10;;;20.30;99.90;;;;;;5050581;28;20025;-70
2022/08/31 02:33:13;;;;;;;2.92;1.92;;;20.30;99.90;;;;;;5042043;28;20052;-72
2022/08/31 02:35:40;;;;;;;3.08;2.22;;;20.20;99.90;;;;;;5035178;28;20592;-70
2022/08/31 02:38:07;;;;;;;4.15;1.80;;;20.20;99.90;;;;;;5048790;28;20025;-70
2022/08/31 02:40:37;;;;;;;1.90;1.70;;;20.20;99.90;;;;;;5024981;28;20477;-72
2022/08/31 02:43:07;;;;;;;3.35;2.13;;;20.10;99.90;;;;;;5046789;28;20072;-70
2022/08/31 02:45:34;;;;;;;2.28;1.90;;;20.10;99.90;;;;;;5045798;28;20025;-70
2022/08/31 02:48:00;;;;;;;1.77;1.67;;;20.10;99.90;;;;;;5033284;28;20068;-70
2022/08/31 02:50:26;;;;;;;4.57;2.30;;;20.10;99.90;;;;;;5046528;28;20401;-72
2022/08/31 02:52:55;;;;;;;3.92;1.70;;;20.10;99.90;;;;;;5048126;28;20485;-72
2022/08/31 02:55:23;;;;;;;2.45;2.20;;;20.10;99.90;;;;;;5049702;28;20032;-70
2022/08/31 02:57:49;;;;;;;4.35;2.83;;;20.00;99.90;;;;;;5043261;28;20025;-72
2022/08/31 03:00:16;;;;;;;3.35;1.90;;;20.00;99.90;;;;;;5044798;28;20512;-72
2022/08/31 03:02:42;;;;;;;3.38;1.98;;;19.90;99.90;;;;;;5044784;28;20091;-72
2022/08/31 03:05:09;;;;;;;2.97;1.90;;;19.80;99.90;;;;;;5052557;28;20090;-70
2022/08/31 03:07:37;;;;;;;4.10;2.20;;;19.70;99.90;;;;;;5046223;28;20074;-70
2022/08/31 03:10:05;;;;;;;2.75;2.50;;;19.50;99.90;;;;;;5041879;28;20143;-71
2022/08/31 03:12:30;;;;;;;2.25;2.05;;;19.50;99.90;;;;;;5052957;28;20035;-71
2022/08/31 03:14:56;;;;;;;2.17;1.95;;;19.50;99.90;;;;;;5032794;28;20028;-72
2022/08/31 03:17:22;;;;;;;4.75;2.15;;;19.50;99.90;;;;;;5046951;28;20540;-72
2022/08/31 03:19:47;;;;;;;2.72;1.95;;;19.50;99.90;;;;;;5047781;28;20083;-72
2022/08/31 03:22:14;;;;;;;3.28;2.35;;;19.50;99.90;;;;;;5051849;28;20445;-72
2022/08/31 03:24:40;;;;;;;3.33;1.90;;;19.50;99.90;;;;;;5046605;28;20036;-69
2022/08/31 03:27:06;;;;;;;4.82;2.22;;;19.40;99.90;;;;;;5034413;28;20033;-71
2022/08/31 03:29:32;;;;;;;4.25;2.40;;;19.40;99.90;;;;;;5048759;28;20441;-72
2022/08/31 03:31:57;;;;;;;4.00;2.22;;;19.40;99.90;;;;;;5051483;28;20378;-72
2022/08/31 03:34:23;;;;;;;4.50;2.20;;;19.40;99.90;;;;;;5048269;28;20571;-71
2022/08/31 03:36:48;;;;;;;4.55;2.60;;;19.40;99.90;;;;;;5047517;28;20021;-72
2022/08/31 03:39:14;;;;;;;2.70;2.10;;;19.40;99.90;;;;;;5045892;28;20063;-71
2022/08/31 03:41:40;;;;;;;2.67;2.47;;;19.50;99.90;;;;;;5034040;28;20025;-72
2022/08/31 03:44:06;;;;;;;3.92;2.20;;;19.60;99.90;;;;;;5047807;28;20033;-70
2022/08/31 03:46:32;;;;;;;2.95;2.42;;;19.60;99.90;;;;;;5049166;28;20032;-70
2022/08/31 03:49:02;;;;;;;4.47;2.33;;;19.60;99.90;;;;;;5040261;28;20017;-69
2022/08/31 03:51:28;;;;;;;3.42;2.10;;;19.60;99.90;;;;;;5044717;28;20056;-70
2022/08/31 03:53:54;;;;;;;3.08;2.10;;;19.60;99.90;;;;;;5048973;28;20397;-69
2022/08/31 03:56:20;;;;;;;2.67;2.22;;;19.50;99.90;;;;;;5049302;28;20032;-69
2022/08/31 03:58:46;;;;;;;3.33;1.88;;;19.50;99.90;;;;;;5047293;28;20033;-70
2022/08/31 04:01:13;;;;;;;3.85;2.10;;;19.50;99.90;;;;;;5047302;28;20036;-69
2022/08/31 04:03:39;;;;;;;4.90;2.60;;;19.40;99.90;;;;;;5049583;28;20461;-69
2022/08/31 04:06:09;;;;;;;2.75;2.00;;;19.40;99.90;;;;;;5044219;28;20075;-69
2022/08/31 04:08:35;;;;;;;3.72;2.10;;;19.40;99.90;;;;;;5048347;28;20527;-68
2022/08/31 04:11:10;;;;;;;4.15;2.47;;;19.40;99.90;;;;;;5033484;28;20036;-69
2022/08/31 04:13:37;;;;;;;3.58;2.30;;;19.40;99.90;;;;;;5047509;28;20080;-69
2022/08/31 04:16:07;;;;;;;3.33;2.22;;;19.30;99.90;;;;;;5038445;28;20021;-69
2022/08/31 04:18:34;;;;;;;3.97;2.20;;;19.40;99.90;;;;;;5047579;28;20086;-68
2022/08/31 04:21:00;;;;;;;2.20;2.03;;;19.40;99.90;;;;;;5045655;28;20021;-69
2022/08/31 04:23:28;;;;;;;5.03;2.20;;;19.40;99.90;;;;;;5045706;28;20032;-68
2022/08/31 04:25:56;;;;;;;2.97;2.38;;;19.30;99.90;;;;;;5029136;28;20185;-68
2022/08/31 04:28:22;;;;;;;2.42;2.22;;;19.20;99.90;;;;;;5042844;28;20036;-68
2022/08/31 04:30:48;;;;;;;2.83;2.58;;;19.20;99.90;;;;;;5050321;28;20033;-69
2022/08/31 04:33:14;;;;;;;3.88;2.42;;;19.30;99.90;;;;;;5043376;28;20037;-69
2022/08/31 04:35:41;;;;;;;5.03;3.13;;;19.20;99.90;;;;;;5044683;28;20790;-68
2022/08/31 04:38:07;;;;;;;2.42;2.22;;;19.20;99.90;;;;;;5047722;28;20552;-69
2022/08/31 04:40:36;;;;;;;5.15;2.70;;;19.10;99.90;;;;;;5045410;28;20504;-69
2022/08/31 04:43:02;;;;;;;4.60;2.38;;;19.10;99.90;;;;;;5044892;28;20039;-72
2022/08/31 04:45:28;;;;;;;2.65;2.45;;;19.10;99.90;;;;;;5043037;28;20384;-72
2022/08/31 04:47:53;;;;;;;2.83;2.55;;;19.00;99.90;;;;;;5045102;28;20017;-72
2022/08/31 04:50:19;;;;;;;4.78;2.88;;;19.00;99.90;;;;;;5042521;28;20439;-72
2022/08/31 04:52:49;;;;;;;2.92;2.72;;;19.00;99.90;;;;;;5043641;28;20053;-71
2022/08/31 04:55:16;;;;;;;2.80;2.40;;;18.90;99.90;;;;;;5045580;28;20032;-72
2022/08/31 04:57:42;;;;;;;2.92;2.40;;;18.90;99.90;;;;;;5040315;28;20036;-72
2022/08/31 05:00:09;;;;;;;3.20;2.88;;;18.90;99.90;;;;;;5043989;28;20100;-72
2022/08/31 05:02:35;;;;;;;4.38;2.50;;;18.90;99.90;;;;;;5043052;28;20052;-70
2022/08/31 05:05:02;;;;;;;6.38;2.58;;;18.90;99.90;;;;;;5044405;28;20021;-70
2022/08/31 05:07:28;;;;;;;5.13;3.10;;;18.80;99.90;;;;;;5040950;28;20096;-69
2022/08/31 05:09:54;;;;;;;3.20;2.90;;;18.80;99.90;;;;;;5038364;28;20112;-69
2022/08/31 05:12:20;;;;;;;3.20;2.90;;;18.80;99.90;;;;;;5019341;28;20025;-70
2022/08/31 05:14:46;;;;;;;4.28;3.05;;;18.80;99.90;;;;;;5036408;28;20040;-72
2022/08/31 05:17:12;;;;;;;4.32;3.05;;;18.70;99.90;;;;;;5046162;28;20022;-69
2022/08/31 05:19:38;;;;;;;3.25;2.95;;;18.80;99.90;;;;;;5045778;28;20116;-72
2022/08/31 05:22:04;;;;;;;3.80;3.10;;;18.60;99.90;;;;;;5026718;28;20108;-72
2022/08/31 05:24:34;;;;;;;4.28;3.08;;;18.60;99.90;;;;;;5031795;28;20033;-71
2022/08/31 05:27:00;;;;;;;3.80;2.80;;;18.60;99.90;;;;;;5043362;28;20082;-72
2022/08/31 05:29:26;;;;;;;4.70;2.75;;;18.70;99.90;;;;;;5039857;28;20025;-72
2022/08/31 05:31:52;;;;;;;3.67;2.90;;;18.70;99.90;;;;;;5040487;28;20036;-72
2022/08/31 05:34:19;;;;;;;2.90;2.60;;;18.60;99.90;;;;;;5049413;28;20041;-72
2022/08/31 05:36:50;;;;;;;3.15;2.95;;;18.50;99.90;;;;;;5028719;28;20036;-72
2022/08/31 05:39:15;;;;;;;3.15;2.47;;;18.40;99.90;;;;;;5042391;28;20145;-72
2022/08/31 05:41:44;;;;;;;2.92;2.45;;;18.50;99.90;;;;;;5047398;28;20483;-71
2022/08/31 05:44:11;;;;;;;4.38;2.65;;;18.50;99.90;;;;;;5045090;28;20069;-74
2022/08/31 05:46:38;;;;;;;3.60;2.70;;;18.50;99.90;;;;;;5052210;28;20500;-70
2022/08/31 05:49:06;;;;;;;4.53;2.88;;;18.50;99.90;;;;;;5054193;28;20028;-69
2022/08/31 05:51:33;;;;;;;2.50;2.30;;;18.50;99.90;;;;;;5048083;28;20025;-68
2022/08/31 05:54:00;;;;;;;4.10;2.90;;;18.30;99.90;;;;;;5052716;28;20032;-69
2022/08/31 05:56:25;;;;;;;3.42;2.40;;;18.30;99.90;;;;;;5050424;28;20036;-69
2022/08/31 05:58:52;;;;;;;7.13;3.20;;;18.30;99.90;;;;;;5049219;28;20029;-69
2022/08/31 06:01:38;;;;;;;2.47;2.28;;;18.30;99.90;;;;;;5044025;28;20102;-68
2022/08/31 06:04:06;;;;;;;2.90;2.40;;;18.30;99.90;;;;;;5051078;28;20037;-69
2022/08/31 06:06:32;;;;;;;3.45;2.60;;;18.20;99.90;;;;;;5048745;28;20017;-68
2022/08/31 06:08:58;;;;;;;5.60;2.25;;;18.20;99.90;;;;;;5049205;28;20074;-68
2022/08/31 06:11:27;;;;;;;3.67;2.90;;;18.30;99.90;;;;;;5047888;28;20026;-69
2022/08/31 06:13:56;;;;;;;2.53;2.33;;;18.20;99.90;;;;;;5049531;28;20123;-69
2022/08/31 06:16:22;;;;;;;2.63;2.40;;;18.30;99.90;;;;;;5048030;28;20021;-69
2022/08/31 06:18:49;;;;;;;4.15;2.55;;;18.10;99.90;;;;;;5046808;28;20385;-69
2022/08/31 06:21:29;;;;;;;2.95;2.67;;;18.20;99.90;;;;;;5048840;28;20027;-69
2022/08/31 06:23:56;;;;;;;3.58;2.40;;;18.30;99.90;;;;;;5048667;28;20026;-69
2022/08/31 06:26:23;;;;;;;4.53;2.10;;;18.30;99.90;;;;;;5048201;28;20013;-69
2022/08/31 06:28:52;;;;;;;2.60;2.40;;;18.30;99.90;;;;;;5042308;28;20546;-69
2022/08/31 06:31:20;;;;;;;2.53;2.30;;;18.40;99.90;;;;;;5048266;28;20037;-70
2022/08/31 06:33:46;;;;;;;5.50;2.42;;;18.50;99.90;;;;;;5051008;28;20047;-68
2022/08/31 06:36:16;;;;;;;4.40;2.38;;;18.50;99.90;;;;;;5028288;28;20132;-69
2022/08/31 06:38:42;;;;;;;3.90;1.83;;;18.50;99.90;;;;;;5041061;28;20097;-69
2022/08/31 06:41:13;;;;;;;5.03;2.60;;;18.50;99.90;;;;;;5026613;28;20030;-68
2022/08/31 06:43:39;;;;;;;5.63;2.38;;;18.40;99.90;;;;;;5049240;28;20473;-68
2022/08/31 06:46:06;;;;;;;4.38;2.65;;;18.50;99.90;;;;;;5050318;28;20058;-69
2022/08/31 06:48:33;;;;;;;4.68;2.70;;;18.40;99.90;;;;;;5042008;28;20030;-69
2022/08/31 06:50:59;;;;;;;5.05;2.80;;;18.50;99.90;;;;;;5041749;28;20018;-69
2022/08/31 06:53:25;;;;;;;5.95;3.33;;;18.60;99.90;;;;;;5029933;28;20397;-69
2022/08/31 06:55:50;;;;;;;3.72;2.95;;;18.60;99.90;;;;;;5049104;28;20025;-69
2022/08/31 06:58:16;;;;;;;4.30;3.30;;;18.60;99.90;;;;;;5042526;28;20037;-68
2022/08/31 07:00:42;;;;;;;6.03;4.00;;;18.70;99.90;;;;;;5050077;28;20079;-69
2022/08/31 07:03:23;;;;;;;5.72;4.45;;;18.80;99.90;;;;;;5050710;28;20533;-69
2022/08/31 07:05:53;;;;;;;8.13;4.57;;;18.90;99.90;;;;;;5043987;28;20493;-69
2022/08/31 07:08:19;;;;;;;6.43;5.40;;;18.90;99.90;;;;;;5043104;28;20053;-69
2022/08/31 07:10:46;;;;;;;10.23;5.78;;;18.90;99.90;;;;;;5042582;28;20040;-69
2022/08/31 07:13:12;;;;;;;11.35;5.45;;;19.00;99.90;;;;;;5034567;28;20092;-69
2022/08/31 07:15:37;;;;;;;10.27;6.78;;;19.00;99.90;;;;;;5047269;28;20469;-69
2022/08/31 07:18:03;;;;;;;14.90;11.18;;;19.00;99.90;;;;;;5046662;28;20033;-69
2022/08/31 07:20:29;;;;;;;16.98;10.25;;;18.90;99.90;;;;;;5055601;28;20117;-69
2022/08/31 07:22:56;;;;;;;19.02;11.68;;;18.90;99.90;;;;;;5059268;28;20019;-69
2022/08/31 07:25:22;;;;;;;14.93;11.13;;;19.00;99.90;;;;;;5049408;28;20393;-69
2022/08/31 07:27:54;;;;;;;15.43;12.60;;;19.00;99.90;;;;;;5055268;28;21489;-69
2022/08/31 07:30:20;;;;;;;17.05;12.00;;;19.10;99.90;;;;;;5051899;28;20211;-69
2022/08/31 07:32:47;;;;;;;21.20;13.68;;;19.10;99.90;;;;;;5049272;28;20538;-69
2022/08/31 07:35:13;;;;;;;20.23;14.88;;;19.00;99.90;;;;;;5049772;28;20082;-69
2022/08/31 07:43:06;;;;;;;22.33;16.60;;;19.00;99.90;;;;;;5044107;28;20139;-69
2022/08/31 07:45:32;;;;;;;22.60;15.23;;;19.10;99.90;;;;;;5044861;28;20092;-69
2022/08/31 07:47:59;;;;;;;22.65;16.23;;;19.10;99.90;;;;;;5045002;28;20029;-69
2022/08/31 07:50:26;;;;;;;20.33;14.40;;;19.20;99.90;;;;;;5051720;28;20075;-68
2022/08/31 07:52:54;;;;;;;22.52;13.95;;;19.10;99.90;;;;;;5043444;28;20037;-68
2022/08/31 07:55:22;;;;;;;17.20;11.93;;;19.30;99.90;;;;;;5046105;28;20021;-68
2022/08/31 07:57:50;;;;;;;17.65;11.07;;;19.40;99.90;;;;;;5040968;28;20056;-68
2022/08/31 08:00:25;;;;;;;18.30;9.30;;;19.60;99.90;;;;;;5054414;28;20025;-69
2022/08/31 08:02:52;;;;;;;15.57;9.15;;;19.70;99.90;;;;;;5053474;28;20032;-67
2022/08/31 08:05:21;;;;;;;11.27;7.60;;;19.70;99.90;;;;;;5033487;28;20396;-68
2022/08/31 08:07:53;;;;;;;13.18;7.40;;;19.80;99.90;;;;;;5053222;28;20070;-67
2022/08/31 08:10:20;;;;;;;9.13;6.65;;;19.90;99.90;;;;;;5053199;28;20025;-69
2022/08/31 08:12:55;;;;;;;10.95;5.57;;;19.90;99.90;;;;;;5042406;28;20036;-71
2022/08/31 08:15:25;;;;;;;10.05;5.32;;;19.90;99.90;;;;;;5049235;28;20550;-70
2022/08/31 08:17:50;;;;;;;9.68;5.50;;;20.00;99.90;;;;;;5044570;28;20032;-70
2022/08/31 08:20:17;;;;;;;11.65;7.82;;;20.00;99.90;;;;;;5048430;28;20028;-70
2022/08/31 08:22:44;;;;;;;8.05;6.15;;;20.10;99.90;;;;;;5042986;28;20047;-70
2022/08/31 08:25:10;;;;;;;11.00;7.32;;;20.20;99.90;;;;;;5027223;28;20112;-71
2022/08/31 08:27:36;;;;;;;11.60;7.32;;;20.10;99.90;;;;;;5042143;28;20028;-71
2022/08/31 08:30:07;;;;;;;14.43;6.65;;;20.00;99.90;;;;;;5018172;28;20156;-72
2022/08/31 08:32:34;;;;;;;8.90;6.45;;;20.10;99.90;;;;;;5041608;28;20090;-71
2022/08/31 08:34:59;;;;;;;11.30;5.85;;;20.10;99.90;;;;;;5043157;28;20024;-71
2022/08/31 08:37:26;;;;;;;11.93;5.43;;;20.20;99.90;;;;;;5044876;28;20047;-71
2022/08/31 08:39:53;;;;;;;7.10;5.32;;;20.20;99.90;;;;;;5047575;28;20481;-69
2022/08/31 08:42:20;;;;;;;12.95;4.88;;;20.20;99.90;;;;;;5021922;28;20539;-70
2022/08/31 08:44:47;;;;;;;10.70;4.78;;;20.30;99.90;;;;;;5044516;28;20032;-70
2022/08/31 08:47:19;;;;;;;6.53;5.35;;;20.20;99.90;;;;;;5044607;28;20033;-69
2022/08/31 08:49:49;;;;;;;5.80;4.35;;;20.40;99.90;;;;;;5025547;28;20032;-70
2022/08/31 08:52:30;;;;;;;5.60;4.78;;;20.60;99.90;;;;;;5042208;28;20474;-70
2022/08/31 08:55:01;;;;;;;6.35;4.32;;;20.70;99.90;;;;;;5045154;28;20032;-70
2022/08/31 08:57:30;;;;;;;6.90;3.95;;;20.90;99.90;;;;;;5038372;28;20093;-70
2022/08/31 08:59:58;;;;;;;4.80;4.35;;;21.00;99.90;;;;;;5046289;28;20094;-69
2022/08/31 09:02:45;;;;;;;9.18;3.85;;;21.10;99.90;;;;;;5046560;28;20120;-70
2022/08/31 09:05:33;;;;;;;5.18;4.53;;;21.20;99.90;;;;;;5044090;28;20099;-69
2022/08/31 09:08:32;;;;;;;5.72;4.03;;;21.30;99.90;;;;;;5042003;28;20478;-69
2022/08/31 09:11:45;;;;;;;8.27;3.70;;;21.30;99.90;;;;;;5028991;28;20037;-70
2022/08/31 09:14:38;;;;;;;7.05;4.47;;;21.20;99.90;;;;;;5039708;28;20055;-68
2022/08/31 09:17:29;;;;;;;4.60;3.83;;;21.30;99.90;;;;;;5044758;28;20045;-67
2022/08/31 09:19:59;;;;;;;4.53;4.13;;;21.30;99.90;;;;;;5049873;28;20036;-68
2022/08/31 09:22:45;;;;;;;7.68;4.65;;;21.30;99.90;;;;;;5045540;28;20062;-68
2022/08/31 09:25:28;;;;;;;4.68;4.28;;;21.20;99.90;;;;;;5042416;28;20492;-68
2022/08/31 09:27:56;;;;;;;;;;;21.30;99.90;;;;;;5050237;28;20036;-68
2022/08/31 09:30:43;;;;;;;7.63;6.20;;;21.40;99.90;;;;;;5050643;28;20004;-67
2022/08/31 09:33:21;;;;;;;5.45;4.03;;;21.60;99.90;;;;;;5043270;28;20098;-67
2022/08/31 09:35:55;;;;;;;8.90;4.78;;;21.80;99.90;;;;;;5047728;28;20079;-68
2022/08/31 09:38:38;;;;;;;12.10;4.63;;;22.10;99.90;;;;;;5047122;28;20021;-68
2022/08/31 09:41:24;;;;;;;8.02;4.18;;;22.50;99.90;;;;;;5044272;28;20599;-69
2022/08/31 09:43:50;;;;;;;6.70;4.20;;;22.70;99.90;;;;;;5016294;28;20128;-69
2022/08/31 09:46:28;;;;;;;8.25;4.28;;;22.90;99.90;;;;;;5049154;28;20113;-69
2022/08/31 09:48:57;;;;;;;5.68;3.80;;;23.20;99.90;;;;;;5048539;28;20009;-69
2022/08/31 09:51:35;;;;;;;11.65;5.63;;;23.30;99.90;;;;;;5051471;28;20083;-69
2022/08/31 09:57:06;;;;;;;9.73;7.68;;;22.80;99.90;;;;;;5043914;28;20522;-70
2022/08/31 09:59:39;;;;;;;10.93;6.30;;;22.50;99.90;;;;;;5035285;28;20025;-70
2022/08/31 10:02:36;;;;;;;5.75;4.90;;;22.40;99.90;;;;;;5047251;28;20059;-69
2022/08/31 10:05:22;;;;;;;10.25;3.95;;;22.40;99.90;;;;;;5045937;28;20060;-69
2022/08/31 10:08:03;;;;;;;6.60;4.00;;;22.40;99.90;;;;;;5049596;28;20025;-68
2022/08/31 10:10:34;;;;;;;8.65;3.42;;;22.50;99.90;;;;;;5050282;28;20014;-69
2022/08/31 10:13:15;;;;;;;4.27;3.80;;;22.50;99.90;;;;;;5049773;28;20393;-69
2022/08/31 10:16:01;;;;;;;6.72;3.72;;;22.70;99.90;;;;;;5047429;28;20065;-69
2022/08/31 10:18:38;;;;;;;7.18;3.15;;;23.00;99.90;;;;;;5048496;28;20032;-69
2022/08/31 10:21:13;;;;;;;4.20;3.55;;;23.30;99.90;;;;;;5049796;28;20123;-69
2022/08/31 10:23:55;;;;;;;12.68;4.35;;;23.60;99.90;;;;;;5027463;28;20025;-69
2022/08/31 10:26:45;;;;;;;5.50;2.92;;;23.70;99.90;;;;;;5049041;28;20017;-69
2022/08/31 10:29:25;;;;;;;4.85;3.90;;;24.00;99.90;;;;;;5046628;28;20620;-69
2022/08/31 10:31:56;;;;;;;7.63;4.47;;;24.10;99.90;;;;;;5045685;28;20032;-69
2022/08/31 10:37:35;;;;;;;8.70;5.78;;;24.40;99.90;;;;;;5044988;28;20036;-69
2022/08/31 10:40:22;;;;;;;17.05;8.10;;;24.50;99.90;;;;;;5050885;28;20036;-68
2022/08/31 10:43:03;;;;;;;17.60;8.73;;;24.60;99.90;;;;;;5040387;28;20462;-69
2022/08/31 10:45:39;;;;;;;17.48;11.27;;;24.70;99.90;;;;;;5040073;28;20469;-70
2022/08/31 10:48:05;;;;;;;17.08;11.85;;;24.70;99.90;;;;;;5045709;28;20462;-70
2022/08/31 10:50:32;;;;;;;18.80;11.50;;;24.80;99.90;;;;;;5045752;28;20048;-70
2022/08/31 10:53:32;;;;;;;18.52;13.00;;;24.80;99.90;;;;;;5044764;28;20021;-69
2022/08/31 10:56:13;;;;;;;19.75;13.43;;;24.80;99.90;;;;;;5044156;28;20103;-69
2022/08/31 10:59:04;;;;;;;21.05;14.38;;;25.10;99.90;;;;;;5025294;28;20030;-69
2022/08/31 11:01:56;;;;;;;35.13;19.00;;;25.30;99.80;;;;;;5047358;28;20025;-69
2022/08/31 11:04:44;;;;;;;24.65;19.70;;;25.30;99.00;;;;;;5047510;28;20021;-69
2022/08/31 11:07:44;;;;;;;24.20;16.40;;;25.30;98.90;;;;;;5048782;28;20021;-70
2022/08/31 11:10:41;;;;;;;23.20;16.70;;;25.10;99.30;;;;;;5051188;28;20021;-70
2022/08/31 11:13:24;;;;;;;23.98;15.70;;;24.90;99.90;;;;;;5026855;28;20033;-69
2022/08/31 11:16:05;;;;;;;26.70;16.77;;;24.70;99.90;;;;;;5045366;28;20037;-70
2022/08/31 11:19:06;;;;;;;23.63;15.63;;;24.50;99.90;;;;;;5049034;28;20021;-71
2022/08/31 11:21:49;;;;;;;25.38;17.85;;;24.20;99.90;;;;;;5050649;28;20017;-69
2022/08/31 11:24:36;;;;;;;27.45;18.38;;;24.00;99.90;;;;;;5045683;28;20067;-69
2022/08/31 11:27:32;;;;;;;27.50;17.83;;;23.90;99.90;;;;;;5042016;28;20071;-69
2022/08/31 11:30:00;;;;;;;30.98;21.58;;;23.90;99.90;;;;;;5047480;28;20532;-69
2022/08/31 11:32:28;;;;;;;29.75;21.25;;;23.80;99.90;;;;;;5048674;28;20029;-70
2022/08/31 11:35:00;;;;;;;31.63;21.42;;;23.70;99.90;;;;;;5045488;28;20033;-69
2022/08/31 11:37:54;;;;;;;20.38;16.40;;;23.70;99.90;;;;;;5045499;28;20029;-69
2022/08/31 11:40:42;;;;;;;19.55;13.77;;;23.90;99.90;;;;;;5024511;28;20099;-75
2022/08/31 11:43:35;;;;;;;22.73;15.90;;;24.30;99.90;;;;;;5042219;28;20091;-69
2022/08/31 11:46:25;;;;;;;28.05;18.73;;;24.80;99.90;;;;;;5044878;28;20114;-70
2022/08/31 11:48:52;;;;;;;25.65;17.40;;;24.90;99.90;;;;;;5043455;28;20024;-71
2022/08/31 11:51:41;;;;;;;20.52;14.52;;;25.10;99.90;;;;;;5050703;28;20502;-70
2022/08/31 11:54:35;;;;;;;20.92;11.88;;;25.20;99.90;;;;;;5045014;28;20048;-69
2022/08/31 11:57:02;;;;;;;22.02;11.07;;;25.40;99.90;;;;;;5030901;28;20035;-70
2022/08/31 11:59:34;;;;;;;12.77;9.32;;;25.60;99.90;;;;;;5045328;28;20067;-69
2022/08/31 12:02:19;;;;;;;17.10;8.63;;;25.70;99.90;;;;;;5051536;28;20492;-70
2022/08/31 12:04:46;;;;;;;14.90;9.80;;;25.90;99.50;;;;;;5043976;28;20029;-70
2022/08/31 12:07:23;;;;;;;22.08;14.27;;;26.10;99.60;;;;;;5047585;28;20032;-69
2022/08/31 12:10:07;;;;;;;16.15;11.38;;;26.00;99.30;;;;;;5042139;28;20027;-69
2022/08/31 12:13:02;;;;;;;12.55;9.00;;;25.90;99.90;;;;;;5047087;28;20374;-70
2022/08/31 12:15:52;;;;;;;9.60;7.35;;;26.00;99.40;;;;;;5044381;28;20043;-70
2022/08/31 12:18:45;;;;;;;14.73;7.57;;;26.20;99.90;;;;;;5050522;28;20029;-70
2022/08/31 12:24:41;;;;;;;26.67;16.15;;;26.20;98.90;;;;;;5046950;28;20118;-70
2022/08/31 12:27:16;;;;;;;20.10;13.93;;;25.90;98.60;;;;;;5047855;28;20037;-69
2022/08/31 12:29:42;;;;;;;10.55;8.05;;;26.00;99.90;;;;;;5043977;28;20036;-69
2022/08/31 12:32:29;;;;;;;12.68;7.13;;;26.10;99.20;;;;;;5047977;28;20025;-69
2022/08/31 12:35:21;;;;;;;20.38;12.32;;;26.20;98.40;;;;;;5049654;28;20063;-69
2022/08/31 12:38:03;;;;;;;20.75;13.82;;;26.40;98.70;;;;;;5027193;28;20433;-69
2022/08/31 12:40:34;;;;;;;14.52;9.23;;;26.60;98.70;;;;;;5049210;28;20037;-69
2022/08/31 12:43:12;;;;;;;7.63;4.75;;;26.70;99.10;;;;;;5052310;28;20520;-70
2022/08/31 12:45:56;;;;;;;8.30;4.88;;;26.50;97.70;;;;;;5053722;28;20029;-68
2022/08/31 12:48:43;;;;;;;7.95;4.97;;;26.50;97.60;;;;;;5052017;28;20033;-69
2022/08/31 12:51:15;;;;;;;4.40;3.97;;;26.50;98.10;;;;;;5053098;28;20029;-70
2022/08/31 12:54:01;;;;;;;10.10;3.75;;;26.40;97.80;;;;;;5049195;28;20473;-69
2022/08/31 12:56:29;;;;;;;4.47;3.47;;;26.30;97.90;;;;;;5050901;28;20064;-71
2022/08/31 12:59:25;;;;;;;9.05;3.38;;;26.40;98.10;;;;;;5052071;28;20092;-69
2022/08/31 13:01:51;;;;;;;8.10;3.45;;;26.40;98.30;;;;;;5055586;28;20043;-69
2022/08/31 13:04:18;;;;;;;6.30;3.60;;;26.30;97.70;;;;;;5050592;28;20032;-69
2022/08/31 13:06:47;;;;;;;6.50;3.53;;;26.10;97.10;;;;;;5054502;28;20013;-70
2022/08/31 13:09:29;;;;;;;6.40;3.80;;;26.40;99.00;;;;;;5051356;28;20026;-71
2022/08/31 13:11:57;;;;;;;5.70;3.72;;;26.40;98.10;;;;;;5055671;28;20104;-68
2022/08/31 13:14:39;;;;;;;10.50;4.63;;;26.60;97.40;;;;;;5053546;28;20385;-69
2022/08/31 13:17:09;;;;;;;8.02;3.92;;;26.50;97.00;;;;;;5053369;28;20120;-69
2022/08/31 13:19:35;;;;;;;5.25;3.53;;;26.50;97.30;;;;;;5053521;28;20025;-69
2022/08/31 13:22:15;;;;;;;7.57;3.45;;;26.60;97.10;;;;;;5054797;28;20437;-69
2022/08/31 13:24:44;;;;;;;5.88;3.72;;;26.70;96.70;;;;;;5046053;28;20075;-68